Time;durP1;ratioP1;P1;durP2;ratioP2;P2;SDS_P1;SDS_P2;PMS_P1;PMS_P2;Temp;Humidity;BMP_temperature;BMP_pressure;BME280_temperature;BME280_humidity;BME280_pressure;Samples;Min_cycle;Max_cycle;Signal;HPM_P1;HPM_P2
2021/11/22 00:00:11;;;;;;;14.18;6.80;;;;;;;2.43;84.98;99756.31;5033223;28;20113;-71
2021/11/22 00:02:36;;;;;;;18.63;7.40;;;;;;;2.34;84.51;99759.97;5031174;28;20038;-71
2021/11/22 00:05:02;;;;;;;9.55;6.80;;;;;;;2.32;84.74;99754.78;5029324;28;20026;-72
2021/11/22 00:07:28;;;;;;;11.68;5.82;;;;;;;2.33;84.79;99755.63;5031142;28;20037;-72
2021/11/22 00:09:53;;;;;;;9.40;5.93;;;;;;;2.33;84.55;99766.03;5029057;28;20029;-72
2021/11/22 00:12:18;;;;;;;12.50;6.97;;;;;;;2.27;84.53;99761.78;5028557;28;20038;-72
2021/11/22 00:14:44;;;;;;;14.57;8.15;;;;;;;2.25;84.87;99767.91;5030034;28;20030;-71
2021/11/22 00:17:09;;;;;;;15.02;7.53;;;;;;;2.19;84.84;99761.06;5029511;28;20030;-71
2021/11/22 00:19:35;;;;;;;15.63;8.18;;;;;;;2.16;84.93;99766.28;5029512;28;20108;-71
2021/11/22 00:22:02;;;;;;;11.45;6.55;;;;;;;2.13;84.70;99777.59;5030194;28;20044;-71
2021/11/22 00:24:27;;;;;;;12.73;6.05;;;;;;;2.20;85.19;99775.78;5029861;28;20524;-71
2021/11/22 00:26:53;;;;;;;19.40;9.10;;;;;;;2.17;84.70;99780.13;5029688;28;20050;-71
2021/11/22 00:29:18;;;;;;;19.75;9.00;;;;;;;2.12;84.65;99769.84;5029041;28;20038;-72
2021/11/22 00:31:47;;;;;;;15.23;7.50;;;;;;;2.08;85.17;99774.19;5031558;28;20029;-71
2021/11/22 00:34:13;;;;;;;15.57;7.32;;;;;;;2.07;84.85;99785.50;5032867;28;20038;-71
2021/11/22 00:36:38;;;;;;;10.10;6.00;;;;;;;2.14;85.23;99788.84;5035010;28;20032;-71
2021/11/22 00:39:04;;;;;;;13.93;7.07;;;;;;;2.25;84.93;99783.50;5029594;28;20101;-71
2021/11/22 00:41:30;;;;;;;10.57;6.25;;;;;;;2.27;84.67;99787.78;5029109;28;20191;-71
2021/11/22 00:43:56;;;;;;;15.85;7.40;;;;;;;2.28;84.81;99775.66;5028986;28;20108;-70
2021/11/22 00:46:24;;;;;;;10.05;6.20;;;;;;;2.25;84.97;99779.16;5030152;28;20172;-71
2021/11/22 00:48:49;;;;;;;16.13;6.38;;;;;;;2.24;84.39;99784.38;5028514;28;20409;-70
2021/11/22 00:51:15;;;;;;;17.38;8.00;;;;;;;2.24;84.26;99787.84;5029359;28;20116;-71
2021/11/22 00:53:40;;;;;;;14.85;8.20;;;;;;;2.21;84.14;99787.88;5029454;28;20061;-71
2021/11/22 00:56:05;;;;;;;9.48;6.10;;;;;;;2.20;84.78;99786.16;5029274;28;20647;-71
2021/11/22 00:58:31;;;;;;;14.63;7.68;;;;;;;2.18;85.11;99782.72;5026952;28;20048;-71
2021/11/22 01:00:56;;;;;;;16.38;7.43;;;;;;;2.20;85.30;99785.31;5028631;28;20405;-71
2021/11/22 01:03:21;;;;;;;12.52;6.30;;;;;;;2.23;85.10;99799.13;5028678;28;20034;-71
2021/11/22 01:05:47;;;;;;;13.48;7.80;;;;;;;2.18;84.72;99793.13;5028773;28;20037;-71
2021/11/22 01:08:12;;;;;;;19.95;8.18;;;;;;;2.13;84.96;99802.75;5028701;28;20040;-70
2021/11/22 01:10:38;;;;;;;9.25;6.28;;;;;;;2.15;85.55;99814.00;5028266;28;20033;-71
2021/11/22 01:13:05;;;;;;;15.25;7.25;;;;;;;2.27;84.87;99813.81;5028590;28;20030;-70
2021/11/22 01:15:33;;;;;;;17.45;7.75;;;;;;;2.33;85.18;99816.31;5027008;28;20051;-71
2021/11/22 01:17:58;;;;;;;12.77;6.43;;;;;;;2.37;84.72;99824.94;5028723;28;20028;-71
2021/11/22 01:20:29;;;;;;;13.73;6.78;;;;;;;2.46;84.70;99824.81;5045431;28;20033;-71
2021/11/22 01:23:00;;;;;;;13.68;6.32;;;;;;;2.50;84.58;99826.44;5048466;28;20087;-72
2021/11/22 01:25:26;;;;;;;14.52;6.78;;;;;;;2.58;84.43;99831.53;5048546;28;20404;-71
2021/11/22 01:27:52;;;;;;;14.38;7.20;;;;;;;2.65;84.59;99837.50;5048635;28;20055;-71
2021/11/22 01:30:17;;;;;;;12.30;6.65;;;;;;;2.70;84.38;99838.28;5047620;28;20058;-71
2021/11/22 01:32:44;;;;;;;14.27;6.53;;;;;;;2.76;84.33;99840.81;5048158;28;20045;-71
2021/11/22 01:35:10;;;;;;;19.98;6.05;;;;;;;2.86;84.50;99844.13;5048816;28;20029;-70
2021/11/22 01:37:36;;;;;;;12.45;6.25;;;;;;;2.97;85.02;99842.16;5047959;28;20511;-70
2021/11/22 01:40:04;;;;;;;18.52;6.32;;;;;;;3.11;84.62;99849.75;5047062;28;20692;-70
2021/11/22 01:42:29;;;;;;;12.50;6.47;;;;;;;3.23;84.72;99853.00;5047453;28;20079;-71
2021/11/22 01:44:55;;;;;;;14.77;6.10;;;;;;;3.33;84.42;99860.66;5048018;28;20423;-71
2021/11/22 01:47:20;;;;;;;16.27;7.05;;;;;;;3.34;83.78;99868.41;5048052;28;20048;-70
2021/11/22 01:49:45;;;;;;;8.30;4.70;;;;;;;3.46;85.01;99872.56;5047050;28;20408;-71
2021/11/22 01:52:11;;;;;;;13.50;6.25;;;;;;;3.60;84.59;99872.28;5048257;28;20621;-71
2021/11/22 01:54:36;;;;;;;12.43;5.45;;;;;;;3.69;84.58;99877.31;5047920;28;20075;-71
2021/11/22 01:57:02;;;;;;;15.55;6.88;;;;;;;3.81;84.70;99879.66;5048194;28;20033;-71
2021/11/22 01:59:29;;;;;;;23.70;8.00;;;;;;;3.85;84.53;99877.88;5047397;28;20074;-71
2021/11/22 02:01:54;;;;;;;14.23;7.10;;;;;;;3.93;84.52;99881.19;5020497;28;20102;-71
2021/11/22 02:04:19;;;;;;;11.98;6.43;;;;;;;3.96;84.05;99873.28;5046526;28;20608;-71
2021/11/22 02:06:45;;;;;;;14.38;7.25;;;;;;;3.99;83.87;99873.25;5047487;28;20894;-71
2021/11/22 02:09:10;;;;;;;27.80;9.48;;;;;;;3.99;83.79;99869.78;5047077;28;20025;-71
2021/11/22 02:11:36;;;;;;;17.52;8.40;;;;;;;4.04;83.62;99883.59;5047716;28;20128;-71
2021/11/22 02:14:03;;;;;;;18.33;7.40;;;;;;;4.07;83.35;99881.75;5047429;28;20152;-71
2021/11/22 02:16:28;;;;;;;18.05;8.43;;;;;;;4.08;83.19;99882.59;5047445;28;20044;-71
2021/11/22 02:18:55;;;;;;;19.33;8.63;;;;;;;4.11;83.74;99893.00;5047449;28;20033;-71
2021/11/22 02:21:21;;;;;;;22.85;8.30;;;;;;;4.15;82.79;99894.63;5047233;28;20040;-70
2021/11/22 02:23:47;;;;;;;15.00;7.60;;;;;;;4.14;83.15;99903.38;5047201;28;20047;-70
2021/11/22 02:26:12;;;;;;;16.92;8.85;;;;;;;4.17;83.33;99907.66;5047032;28;20108;-71
2021/11/22 02:28:38;;;;;;;15.52;7.85;;;;;;;4.17;83.41;99905.03;5046637;28;20041;-70
2021/11/22 02:31:03;;;;;;;13.82;7.95;;;;;;;4.20;82.95;99905.81;5047112;28;20029;-71
2021/11/22 02:33:29;;;;;;;22.90;9.55;;;;;;;4.18;83.13;99915.44;5035373;28;20033;-71
2021/11/22 02:35:58;;;;;;;21.15;9.93;;;;;;;4.18;82.73;99911.97;5027854;28;20025;-71
2021/11/22 02:38:29;;;;;;;21.08;10.63;;;;;;;4.08;83.22;99919.13;5027317;28;20396;-71
2021/11/22 02:40:56;;;;;;;29.77;13.05;;;;;;;4.09;83.02;99921.72;5023708;28;20033;-71
2021/11/22 02:43:22;;;;;;;31.83;14.13;;;;;;;4.07;83.47;99917.44;5027277;28;20076;-70
2021/11/22 02:45:48;;;;;;;25.10;15.27;;;;;;;4.02;83.77;99919.28;5027295;28;20060;-70
2021/11/22 02:48:13;;;;;;;25.85;15.80;;;;;;;4.07;84.12;99926.09;5027057;28;20072;-70
2021/11/22 02:50:39;;;;;;;32.20;21.00;;;;;;;4.05;84.34;99914.84;5026705;28;20033;-71
2021/11/22 02:53:05;;;;;;;33.22;19.60;;;;;;;4.03;84.91;99921.81;5025591;28;20492;-71
2021/11/22 02:55:30;;;;;;;32.33;20.48;;;;;;;4.07;84.91;99918.28;5027121;28;20488;-70
2021/11/22 02:57:56;;;;;;;40.38;26.17;;;;;;;4.12;84.11;99922.56;5029314;28;20029;-70
2021/11/22 03:00:28;;;;;;;53.25;26.45;;;;;;;4.04;85.05;99931.38;5026889;28;20041;-71
2021/11/22 03:02:54;;;;;;;46.35;28.33;;;;;;;4.08;85.29;99930.41;5027465;28;20098;-71
2021/11/22 03:05:21;;;;;;;44.67;27.55;;;;;;;4.09;85.27;99933.91;5026651;28;20209;-71
2021/11/22 03:07:50;;;;;;;51.47;29.05;;;;;;;4.12;85.26;99939.06;5026208;28;20489;-70
2021/11/22 03:10:17;;;;;;;67.90;34.92;;;;;;;3.96;85.65;99954.13;5025944;28;20037;-70
2021/11/22 03:12:43;;;;;;;53.90;33.53;;;;;;;3.95;85.99;99942.00;5027867;28;20037;-71
2021/11/22 03:15:12;;;;;;;54.45;29.85;;;;;;;4.03;85.95;99952.28;5029076;28;20409;-71
2021/11/22 03:17:37;;;;;;;52.50;30.10;;;;;;;3.98;86.20;99947.16;5027340;28;20081;-71
2021/11/22 03:20:05;;;;;;;66.43;35.58;;;;;;;3.96;85.92;99953.28;5029670;28;20076;-71
2021/11/22 03:22:31;;;;;;;63.45;34.85;;;;;;;3.96;86.60;99959.34;5031292;28;20068;-72
2021/11/22 03:24:56;;;;;;;56.88;33.83;;;;;;;3.92;86.48;99960.31;5029179;28;20068;-71
2021/11/22 03:27:22;;;;;;;76.40;36.70;;;;;;;3.92;86.78;99962.94;5029600;28;20065;-71
2021/11/22 03:29:47;;;;;;;63.03;32.20;;;;;;;3.96;86.87;99961.09;5025874;28;20091;-71
2021/11/22 03:32:13;;;;;;;64.53;34.58;;;;;;;3.92;86.80;99967.28;5026081;28;20053;-71
2021/11/22 03:34:38;;;;;;;78.07;36.83;;;;;;;3.88;86.98;99977.75;5026995;28;20125;-70
2021/11/22 03:37:05;;;;;;;77.57;37.97;;;;;;;3.83;87.69;99977.00;5027278;28;20551;-70
2021/11/22 03:39:32;;;;;;;62.47;36.22;;;;;;;3.85;87.86;99977.81;5026943;28;20065;-70
2021/11/22 03:42:01;;;;;;;68.72;36.38;;;;;;;3.86;87.80;99986.50;5026566;28;20038;-70
2021/11/22 03:44:26;;;;;;;60.35;36.78;;;;;;;3.88;87.64;99989.94;5027181;28;20109;-70
2021/11/22 03:46:54;;;;;;;68.07;33.58;;;;;;;3.85;88.27;99990.88;5026800;28;20552;-72
2021/11/22 03:49:20;;;;;;;57.42;33.63;;;;;;;3.88;87.98;99998.63;5026049;28;20052;-71
2021/11/22 03:51:46;;;;;;;65.32;37.17;;;;;;;3.96;87.83;99995.88;5026569;28;20508;-71
2021/11/22 03:54:12;;;;;;;70.97;35.55;;;;;;;3.94;88.07;100002.91;5029454;28;20627;-71
2021/11/22 03:56:38;;;;;;;87.25;40.50;;;;;;;3.90;87.90;100002.97;5028680;28;20068;-71
2021/11/22 03:59:05;;;;;;;59.08;34.83;;;;;;;3.93;88.40;100008.97;5029425;28;20439;-70
2021/11/22 04:01:30;;;;;;;63.75;35.50;;;;;;;3.93;88.22;100006.38;5030262;28;20036;-70
2021/11/22 04:03:56;;;;;;;70.20;36.97;;;;;;;3.94;88.14;100015.94;5030234;28;20524;-71
2021/11/22 04:06:21;;;;;;;57.40;34.03;;;;;;;3.96;88.59;100005.44;5030141;28;20041;-70
2021/11/22 04:08:47;;;;;;;57.35;32.83;;;;;;;3.94;88.55;100010.72;5029383;28;20042;-70
2021/11/22 04:11:13;;;;;;;63.08;31.65;;;;;;;4.02;88.45;100013.19;5029673;28;20494;-71
2021/11/22 04:13:39;;;;;;;45.08;29.35;;;;;;;4.12;88.56;100019.09;5029956;28;20083;-70
2021/11/22 04:16:05;;;;;;;54.22;31.98;;;;;;;4.22;87.97;100024.09;5029648;28;20039;-69
2021/11/22 04:18:32;;;;;;;50.97;29.27;;;;;;;4.24;87.83;100029.28;5029634;28;20053;-71
2021/11/22 04:20:57;;;;;;;56.67;30.38;;;;;;;4.28;87.49;100031.81;5029348;28;20037;-71
2021/11/22 04:23:23;;;;;;;56.03;32.70;;;;;;;4.26;87.86;100038.81;5028638;28;20056;-71
2021/11/22 04:25:49;;;;;;;58.00;33.88;;;;;;;4.26;87.79;100036.19;5026962;28;20396;-70
2021/11/22 04:28:15;;;;;;;55.45;30.58;;;;;;;4.30;87.41;100042.19;5029256;28;20026;-70
2021/11/22 04:30:41;;;;;;;48.55;28.70;;;;;;;4.34;87.89;100045.63;5028663;28;20048;-70
2021/11/22 04:33:07;;;;;;;60.90;34.00;;;;;;;4.31;87.31;100056.97;5029368;28;20516;-71
2021/11/22 04:35:33;;;;;;;63.03;33.35;;;;;;;4.34;87.71;100064.75;5028889;28;20743;-71
2021/11/22 04:37:58;;;;;;;72.43;35.83;;;;;;;4.32;87.34;100057.84;5029037;28;20113;-70
2021/11/22 04:40:24;;;;;;;65.53;35.22;;;;;;;4.32;88.08;100063.91;5028950;28;20148;-70
2021/11/22 04:42:49;;;;;;;64.57;33.58;;;;;;;4.30;87.97;100066.53;5029027;28;20041;-71
2021/11/22 04:45:21;;;;;;;73.00;39.13;;;;;;;4.25;88.12;100075.34;5028673;28;20037;-70
2021/11/22 04:47:48;;;;;;;72.35;40.03;;;;;;;4.23;88.04;100080.63;5028722;28;20030;-71
2021/11/22 04:50:15;;;;;;;74.97;39.85;;;;;;;4.27;88.16;100078.81;5028476;28;20468;-70
2021/11/22 04:52:44;;;;;;;86.30;47.03;;;;;;;4.28;87.95;100085.72;5029486;28;20401;-73
2021/11/22 04:55:10;;;;;;;74.95;40.72;;;;;;;4.25;88.54;100086.66;5029564;28;20112;-70
2021/11/22 04:57:36;;;;;;;82.00;43.47;;;;;;;4.23;88.13;100087.56;5028977;28;20034;-72
2021/11/22 05:00:04;;;;;;;62.35;39.15;;;;;;;4.29;89.05;100090.06;5028428;28;20191;-71
2021/11/22 05:02:30;;;;;;;80.88;43.63;;;;;;;4.34;88.06;100093.47;5027666;28;20117;-71
2021/11/22 05:04:55;;;;;;;68.68;40.05;;;;;;;4.38;88.15;100094.25;5029426;28;20167;-70
2021/11/22 05:07:21;;;;;;;66.15;40.00;;;;;;;4.41;88.21;100102.91;5029362;28;20041;-70
2021/11/22 05:09:46;;;;;;;68.97;41.33;;;;;;;4.43;87.92;100103.72;5026703;28;20045;-70
2021/11/22 05:12:12;;;;;;;60.75;37.75;;;;;;;4.42;87.00;100103.75;5029199;28;20037;-71
2021/11/22 05:14:38;;;;;;;59.83;38.40;;;;;;;4.45;87.54;100095.84;5028730;28;20063;-71
2021/11/22 05:17:04;;;;;;;60.15;36.13;;;;;;;4.59;87.21;100098.22;5029077;28;20167;-71
2021/11/22 05:19:32;;;;;;;58.15;38.22;;;;;;;4.56;86.92;100103.50;5027825;28;20033;-70
2021/11/22 05:21:59;;;;;;;62.20;37.50;;;;;;;4.59;86.71;100109.50;5029222;28;20049;-71
2021/11/22 05:24:25;;;;;;;61.85;36.58;;;;;;;4.61;87.05;100107.72;5031048;28;20053;-71
2021/11/22 05:26:51;;;;;;;65.88;37.65;;;;;;;4.54;86.62;100110.50;5030514;28;20374;-71
2021/11/22 05:29:16;;;;;;;60.22;39.17;;;;;;;4.56;86.79;100111.34;5033149;28;20095;-71
2021/11/22 05:31:42;;;;;;;54.35;37.45;;;;;;;4.51;86.47;100114.88;5050853;28;20037;-71
2021/11/22 05:34:07;;;;;;;55.38;34.45;;;;;;;4.57;86.80;100120.88;5051154;28;20037;-71
2021/11/22 05:36:35;;;;;;;69.32;37.97;;;;;;;4.58;86.52;100123.47;5050655;28;20053;-71
2021/11/22 05:39:03;;;;;;;55.10;36.08;;;;;;;4.62;86.30;100130.31;5047947;28;20041;-72
2021/11/22 05:41:28;;;;;;;57.55;35.28;;;;;;;4.62;85.97;100135.53;5048714;28;20094;-71
2021/11/22 05:43:53;;;;;;;49.33;32.20;;;;;;;4.68;85.75;100134.59;5049322;28;20574;-71
2021/11/22 05:46:19;;;;;;;50.72;33.47;;;;;;;4.67;85.85;100140.69;5050149;28;20094;-72
2021/11/22 05:48:44;;;;;;;47.75;31.13;;;;;;;4.62;85.72;100145.13;5047863;28;20504;-71
2021/11/22 05:51:11;;;;;;;46.13;32.08;;;;;;;4.55;85.57;100146.16;5048822;28;20492;-72
2021/11/22 05:53:37;;;;;;;44.78;29.17;;;;;;;4.60;86.02;100155.59;5049080;28;20040;-71
2021/11/22 05:56:06;;;;;;;39.38;27.95;;;;;;;4.72;85.87;100149.28;5048436;28;20035;-71
2021/11/22 05:58:33;;;;;;;46.17;30.23;;;;;;;4.74;85.32;100161.44;5047316;28;20037;-71
2021/11/22 06:00:59;;;;;;;37.47;27.90;;;;;;;4.78;85.34;100156.16;5048748;28;20029;-71
2021/11/22 06:03:27;;;;;;;41.78;27.38;;;;;;;4.77;85.29;100165.72;5046906;28;20040;-71
2021/11/22 06:05:53;;;;;;;39.72;27.67;;;;;;;4.75;85.38;100167.53;5047363;28;20057;-70
2021/11/22 06:08:20;;;;;;;42.20;26.63;;;;;;;4.75;84.90;100175.38;5047306;28;20215;-71
2021/11/22 06:10:46;;;;;;;39.10;25.17;;;;;;;4.71;84.81;100171.94;5048217;28;20060;-71
2021/11/22 06:13:12;;;;;;;54.78;26.58;;;;;;;4.68;84.94;100181.59;5049907;28;20033;-71
2021/11/22 06:15:40;;;;;;;31.85;24.20;;;;;;;4.71;84.84;100182.38;5056213;28;20079;-72
2021/11/22 06:18:06;;;;;;;32.78;23.48;;;;;;;4.76;84.49;100186.69;5050549;28;20029;-71
2021/11/22 06:20:31;;;;;;;32.78;21.35;;;;;;;4.72;84.39;100194.53;5049828;28;20096;-71
2021/11/22 06:22:57;;;;;;;33.53;22.05;;;;;;;4.70;83.91;100195.47;5048498;28;20124;-73
2021/11/22 06:25:22;;;;;;;32.28;21.17;;;;;;;4.73;84.27;100201.50;5048452;28;20033;-71
2021/11/22 06:27:48;;;;;;;30.90;20.02;;;;;;;4.77;83.71;100207.53;5033789;28;20032;-72
2021/11/22 06:30:13;;;;;;;28.83;19.70;;;;;;;4.82;84.26;100210.06;5026784;28;20033;-72
2021/11/22 06:32:39;;;;;;;23.67;18.58;;;;;;;4.85;83.74;100203.03;5027039;28;20519;-71
2021/11/22 06:35:06;;;;;;;23.65;16.45;;;;;;;4.87;83.53;100213.44;5030815;28;20087;-72
2021/11/22 06:37:33;;;;;;;23.48;16.75;;;;;;;4.85;82.72;100215.22;5032037;28;20068;-72
2021/11/22 06:39:58;;;;;;;25.30;19.38;;;;;;;4.84;83.30;100219.56;5026404;28;20528;-71
2021/11/22 06:42:25;;;;;;;21.73;15.85;;;;;;;4.82;82.55;100221.34;5028417;28;20124;-71
2021/11/22 06:44:50;;;;;;;21.52;16.23;;;;;;;4.84;82.45;100209.13;5027425;28;20044;-71
2021/11/22 06:47:16;;;;;;;19.63;15.10;;;;;;;4.86;82.45;100220.41;5027397;28;20033;-71
2021/11/22 06:49:41;;;;;;;21.02;14.45;;;;;;;4.92;82.34;100220.31;5027265;28;20033;-70
2021/11/22 06:52:07;;;;;;;19.40;14.48;;;;;;;4.93;81.45;100223.78;5027853;28;20045;-71
2021/11/22 06:54:33;;;;;;;18.35;14.10;;;;;;;4.87;81.61;100235.22;5027596;28;20033;-71
2021/11/22 06:56:59;;;;;;;17.38;13.75;;;;;;;4.87;81.83;100232.59;5028631;28;20453;-71
2021/11/22 06:59:27;;;;;;;18.88;13.07;;;;;;;4.91;81.75;100236.84;5027824;28;20125;-70
2021/11/22 07:01:53;;;;;;;17.13;12.73;;;;;;;4.92;81.28;100232.50;5027443;28;20041;-70
2021/11/22 07:04:19;;;;;;;23.25;14.20;;;;;;;4.91;81.46;100242.09;5037685;28;20034;-71
2021/11/22 07:06:44;;;;;;;16.38;13.20;;;;;;;4.91;81.53;100234.25;5035057;28;20156;-71
2021/11/22 07:09:10;;;;;;;18.00;13.38;;;;;;;4.87;81.25;100245.66;5029875;28;20025;-71
2021/11/22 07:11:35;;;;;;;18.60;13.52;;;;;;;4.91;81.52;100249.94;5034917;28;20052;-71
2021/11/22 07:14:03;;;;;;;14.48;11.90;;;;;;;4.88;80.52;100250.00;5027925;28;20029;-71
2021/11/22 07:16:28;;;;;;;14.90;12.00;;;;;;;4.86;80.80;100251.75;5026562;28;20028;-71
2021/11/22 07:18:54;;;;;;;14.63;11.82;;;;;;;4.89;80.51;100262.16;5026742;28;20105;-71
2021/11/22 07:21:19;;;;;;;17.75;11.25;;;;;;;4.90;80.52;100268.25;5027432;28;20448;-72
2021/11/22 07:23:44;;;;;;;18.90;13.80;;;;;;;4.90;80.21;100266.50;5026519;28;20037;-72
2021/11/22 07:26:10;;;;;;;16.67;11.38;;;;;;;4.90;80.31;100278.72;5027000;28;20057;-72
2021/11/22 07:28:35;;;;;;;18.98;13.90;;;;;;;4.94;79.95;100275.13;5032751;28;20117;-70
2021/11/22 07:31:01;;;;;;;19.13;14.65;;;;;;;4.93;80.08;100289.09;5031591;28;20044;-72
2021/11/22 07:33:26;;;;;;;20.60;12.65;;;;;;;4.98;79.82;100292.47;5031085;28;20057;-72
2021/11/22 07:35:52;;;;;;;19.00;15.30;;;;;;;4.94;79.87;100296.88;5031300;28;20052;-73
2021/11/22 07:38:18;;;;;;;18.23;14.02;;;;;;;4.89;80.17;100301.34;5031038;28;20040;-71
2021/11/22 07:40:44;;;;;;;23.23;14.75;;;;;;;4.79;80.36;100306.75;5029906;28;20033;-71
2021/11/22 07:43:10;;;;;;;20.92;14.20;;;;;;;4.70;81.10;100313.88;5029422;28;20412;-71
2021/11/22 07:45:35;;;;;;;18.17;13.85;;;;;;;4.72;80.88;100321.66;5030627;28;20037;-71
2021/11/22 07:48:01;;;;;;;21.40;14.95;;;;;;;4.72;80.69;100325.13;5031642;28;20117;-72
2021/11/22 07:50:29;;;;;;;35.33;16.42;;;;;;;4.60;81.01;100335.78;5030154;28;20033;-72
2021/11/22 07:52:54;;;;;;;25.48;16.65;;;;;;;4.64;81.28;100336.59;5030356;28;20037;-73
2021/11/22 07:55:23;;;;;;;23.13;15.98;;;;;;;4.64;81.17;100339.22;5030523;28;20056;-71
2021/11/22 07:57:50;;;;;;;24.45;17.73;;;;;;;4.57;81.59;100348.03;5029049;28;20108;-72
2021/11/22 08:00:16;;;;;;;26.38;17.50;;;;;;;4.52;82.41;100351.56;5029620;28;20036;-71
2021/11/22 08:02:42;;;;;;;28.52;18.25;;;;;;;4.50;82.09;100358.59;5030334;28;20025;-72
2021/11/22 08:05:09;;;;;;;25.63;17.52;;;;;;;4.50;82.46;100361.19;5030548;28;20683;-71
2021/11/22 08:07:37;;;;;;;21.98;17.67;;;;;;;4.50;81.98;100358.59;5030389;28;20026;-72
2021/11/22 08:10:15;;;;;;;20.63;15.82;;;;;;;4.46;81.96;100375.16;5029229;28;20042;-71
2021/11/22 08:12:40;;;;;;;23.10;16.23;;;;;;;4.43;82.25;100380.44;5029912;28;20033;-72
2021/11/22 08:15:10;;;;;;;19.50;14.98;;;;;;;4.45;82.68;100381.25;5030572;28;20427;-72
2021/11/22 08:17:39;;;;;;;19.52;14.70;;;;;;;4.53;82.78;100381.19;5030930;28;20029;-72
2021/11/22 08:20:05;;;;;;;20.00;14.57;;;;;;;4.58;82.11;100384.56;5029586;28;20034;-72
2021/11/22 08:22:31;;;;;;;17.02;13.77;;;;;;;4.63;81.64;100382.75;5030342;28;20069;-71
2021/11/22 08:25:00;;;;;;;22.52;15.65;;;;;;;4.64;81.54;100392.31;5029297;28;20068;-71
2021/11/22 08:27:28;;;;;;;21.52;15.43;;;;;;;4.57;81.61;100401.09;5027751;28;20052;-71
2021/11/22 08:29:57;;;;;;;22.58;15.18;;;;;;;4.59;81.52;100401.09;5030138;28;20492;-72
2021/11/22 08:32:23;;;;;;;23.58;15.60;;;;;;;4.61;81.61;100408.03;5037703;28;20025;-70
2021/11/22 08:34:48;;;;;;;31.75;17.63;;;;;;;4.69;81.66;100410.50;5040826;28;20044;-72
2021/11/22 08:37:14;;;;;;;20.70;14.70;;;;;;;4.79;81.14;100412.09;5036338;28;20030;-72
2021/11/22 08:39:40;;;;;;;23.63;16.25;;;;;;;4.84;80.98;100420.72;5029740;28;20404;-72
2021/11/22 08:42:06;;;;;;;24.00;14.18;;;;;;;4.85;81.38;100421.56;5030583;28;20038;-73
2021/11/22 08:44:33;;;;;;;19.15;15.60;;;;;;;4.81;80.82;100420.78;5030132;28;20038;-70
2021/11/22 08:46:59;;;;;;;20.20;14.63;;;;;;;4.80;80.15;100428.63;5029834;28;20058;-72
2021/11/22 08:49:25;;;;;;;22.98;16.17;;;;;;;4.66;80.76;100434.94;5028788;28;20083;-71
2021/11/22 08:51:51;;;;;;;19.00;14.48;;;;;;;4.64;81.18;100436.69;5029387;28;20029;-71
2021/11/22 08:54:17;;;;;;;20.98;15.02;;;;;;;4.65;80.21;100441.06;5029568;28;20029;-71
2021/11/22 08:56:42;;;;;;;25.65;15.43;;;;;;;4.66;80.91;100444.53;5029681;28;20441;-70
2021/11/22 08:59:08;;;;;;;16.85;13.40;;;;;;;4.66;81.24;100449.75;5029690;28;20033;-72
2021/11/22 09:01:35;;;;;;;16.63;13.88;;;;;;;4.74;80.92;100453.97;5028939;28;20033;-72
2021/11/22 09:04:00;;;;;;;22.33;15.07;;;;;;;4.81;80.08;100451.25;5029703;28;20045;-71
2021/11/22 09:06:25;;;;;;;23.13;14.60;;;;;;;4.81;79.92;100465.19;5026926;28;20045;-70
2021/11/22 09:08:51;;;;;;;21.70;14.48;;;;;;;4.88;80.16;100468.59;5029218;28;20033;-72
2021/11/22 09:11:17;;;;;;;23.17;16.20;;;;;;;4.90;80.53;100467.66;5028770;28;20037;-73
2021/11/22 09:13:44;;;;;;;20.98;15.10;;;;;;;4.91;79.86;100466.78;5029481;28;20048;-73
2021/11/22 09:16:10;;;;;;;27.50;16.60;;;;;;;5.03;79.83;100476.19;5028766;28;20037;-70
2021/11/22 09:18:36;;;;;;;22.95;15.57;;;;;;;5.02;78.92;100478.81;5028816;28;20033;-72
2021/11/22 09:21:03;;;;;;;24.73;18.67;;;;;;;4.99;79.12;100481.47;5029560;28;20068;-72
2021/11/22 09:23:28;;;;;;;27.63;20.52;;;;;;;4.87;79.23;100485.13;5029034;28;20124;-71
2021/11/22 09:25:54;;;;;;;25.50;19.02;;;;;;;4.73;79.68;100485.34;5030764;28;20112;-72
2021/11/22 09:28:20;;;;;;;25.55;19.17;;;;;;;4.79;79.34;100479.16;5029033;28;20076;-72
2021/11/22 09:30:46;;;;;;;26.52;20.42;;;;;;;4.81;79.11;100490.44;5028334;28;20030;-72
2021/11/22 09:33:12;;;;;;;24.30;19.33;;;;;;;4.83;78.79;100492.16;5027672;28;20457;-71
2021/11/22 09:35:38;;;;;;;23.98;18.88;;;;;;;5.05;79.14;100495.31;5041417;28;20132;-72
2021/11/22 09:38:04;;;;;;;24.25;18.15;;;;;;;5.85;76.80;100493.97;5046803;28;20032;-71
2021/11/22 09:40:30;;;;;;;21.90;17.52;;;;;;;6.37;74.02;100499.97;5047575;28;20029;-72
2021/11/22 09:42:56;;;;;;;30.27;18.77;;;;;;;6.60;73.37;100495.13;5048385;28;20094;-72
2021/11/22 09:45:26;;;;;;;20.92;18.55;;;;;;;6.99;71.67;100505.63;5048285;28;20097;-71
2021/11/22 09:47:57;;;;;;;17.70;14.88;;;;;;;6.98;72.19;100509.13;5048522;28;20029;-71
2021/11/22 09:50:23;;;;;;;16.52;14.60;;;;;;;6.98;72.29;100506.50;5046503;28;20492;-71
2021/11/22 09:52:48;;;;;;;16.75;13.60;;;;;;;7.47;69.09;100504.47;5048115;28;20032;-72
2021/11/22 09:55:14;;;;;;;23.65;16.08;;;;;;;7.35;69.16;100515.28;5048083;28;20061;-71
2021/11/22 09:57:40;;;;;;;20.15;17.50;;;;;;;7.16;69.93;100506.97;5046695;28;20028;-72
2021/11/22 10:00:10;;;;;;;23.98;17.77;;;;;;;6.92;70.00;100511.03;5047811;28;20067;-71
2021/11/22 10:02:49;;;;;;;18.88;14.70;;;;;;;6.59;72.18;100498.63;5047791;28;20061;-72
2021/11/22 10:05:18;;;;;;;19.25;16.17;;;;;;;6.49;71.70;100510.19;5047982;28;20033;-73
2021/11/22 10:07:44;;;;;;;18.48;15.85;;;;;;;5.95;72.03;100505.16;5048296;28;20029;-72
2021/11/22 10:10:13;;;;;;;17.63;15.13;;;;;;;5.98;73.41;100513.81;5045004;28;20631;-71
2021/11/22 10:12:41;;;;;;;21.92;14.15;;;;;;;6.10;72.61;100512.72;5027743;28;20048;-72
2021/11/22 10:15:07;;;;;;;21.83;16.92;;;;;;;5.99;73.91;100507.69;5027738;28;20440;-73
2021/11/22 10:17:38;;;;;;;17.60;15.25;;;;;;;6.03;74.11;100513.75;5027770;28;20030;-72
2021/11/22 10:20:10;;;;;;;19.45;15.73;;;;;;;5.90;72.67;100520.03;5026951;28;20068;-71
2021/11/22 10:22:44;;;;;;;18.65;16.45;;;;;;;5.62;73.81;100517.06;5027384;28;20571;-72
2021/11/22 10:25:21;;;;;;;21.45;17.25;;;;;;;5.69;74.12;100522.16;5027843;28;20049;-73
2021/11/22 10:27:47;;;;;;;21.33;16.98;;;;;;;5.74;74.83;100522.94;5028239;28;20041;-71
2021/11/22 10:30:24;;;;;;;25.52;17.02;;;;;;;5.70;74.49;100518.66;5028425;28;20052;-71
2021/11/22 10:32:53;;;;;;;22.27;15.80;;;;;;;5.68;74.44;100525.66;5033049;28;20060;-73
2021/11/22 10:35:23;;;;;;;20.77;15.40;;;;;;;5.71;74.25;100519.50;5029720;28;20034;-72
2021/11/22 10:38:01;;;;;;;19.65;16.48;;;;;;;5.67;74.72;100526.56;5027794;28;20095;-71
2021/11/22 10:40:29;;;;;;;19.90;16.95;;;;;;;5.61;74.40;100524.03;5026700;28;20393;-72
2021/11/22 10:42:56;;;;;;;17.95;15.85;;;;;;;5.62;74.22;100532.75;5027636;28;20060;-72
2021/11/22 10:45:27;;;;;;;16.92;14.82;;;;;;;5.50;73.28;100539.91;5027010;28;20408;-71
2021/11/22 10:48:14;;;;;;;16.95;13.68;;;;;;;5.34;73.96;100547.16;5027308;28;20037;-72
2021/11/22 10:50:49;;;;;;;18.83;15.20;;;;;;;5.50;73.49;100544.28;5026592;28;20053;-72
2021/11/22 10:53:15;;;;;;;16.73;14.50;;;;;;;5.53;72.70;100533.78;5027408;28;20216;-72
2021/11/22 10:55:46;;;;;;;26.35;13.82;;;;;;;5.72;72.09;100536.94;5027001;28;20041;-72
2021/11/22 10:58:45;;;;;;;18.98;15.70;;;;;;;6.01;71.23;100541.69;5027376;28;20076;-71
2021/11/22 11:01:18;;;;;;;16.02;13.93;;;;;;;5.93;71.22;100536.56;5026741;28;20049;-72
2021/11/22 11:03:57;;;;;;;15.45;12.85;;;;;;;5.86;71.60;100537.56;5026996;28;20563;-73
2021/11/22 11:06:44;;;;;;;14.93;13.20;;;;;;;5.87;70.40;100543.66;5025294;28;20034;-71
2021/11/22 11:09:32;;;;;;;17.55;13.70;;;;;;;5.98;70.13;100534.78;5026081;28;20029;-72
2021/11/22 11:12:11;;;;;;;16.80;12.90;;;;;;;5.98;70.52;100544.34;5024935;28;20037;-72
2021/11/22 11:14:43;;;;;;;21.23;15.55;;;;;;;5.96;70.25;100539.16;5027240;28;20044;-72
2021/11/22 11:17:20;;;;;;;16.60;14.50;;;;;;;5.88;69.93;100546.25;5026085;28;20026;-73
2021/11/22 11:19:49;;;;;;;15.13;12.57;;;;;;;5.86;69.85;100541.91;5026234;28;20025;-72